Time;durP1;ratioP1;P1;durP2;ratioP2;P2;SDS_P1;SDS_P2;PMS_P1;PMS_P2;Temp;Humidity;BMP_temperature;BMP_pressure;BME280_temperature;BME280_humidity;BME280_pressure;Samples;Min_cycle;Max_cycle;Signal;HPM_P1;HPM_P2
2022/03/30 00:01:22;;;;;;;43.30;19.40;;;;;;;;;;5009721;28;20426;-74
2022/03/30 00:03:47;;;;;;;43.27;19.77;;;;;;;;;;5008625;28;20080;-74
2022/03/30 00:06:13;;;;;;;41.70;19.10;;;;;;;;;;5025089;28;20018;-75
2022/03/30 00:08:38;;;;;;;43.17;18.63;;;;;;;;;;5009227;28;20087;-76
2022/03/30 00:11:05;;;;;;;42.23;19.57;;;;;;;;;;5008785;28;20030;-76
2022/03/30 00:13:30;;;;;;;41.63;19.17;;;;;;;;;;5008454;28;20115;-73
2022/03/30 00:15:56;;;;;;;42.77;18.90;;;;;;;;;;5008067;28;20521;-73
2022/03/30 00:18:21;;;;;;;43.40;19.07;;;;;;;;;;5007777;28;20379;-74
2022/03/30 00:20:47;;;;;;;47.93;19.13;;;;;;;;;;5005018;28;20493;-74
2022/03/30 00:23:13;;;;;;;42.00;19.10;;;;;;;;;;4988430;28;20030;-75
2022/03/30 00:25:39;;;;;;;38.50;17.53;;;;;;;;;;4988737;28;20437;-74
2022/03/30 00:28:05;;;;;;;41.80;19.83;;;;;;;;;;4989954;28;20022;-74
2022/03/30 00:30:31;;;;;;;47.73;19.63;;;;;;;;;;4989065;28;20032;-74
2022/03/30 00:32:57;;;;;;;49.67;20.50;;;;;;;;;;5006360;28;20025;-74
2022/03/30 00:35:23;;;;;;;46.77;20.47;;;;;;;;;;5009854;28;20033;-73
2022/03/30 00:37:48;;;;;;;49.33;19.93;;;;;;;;;;5008040;28;20036;-74
2022/03/30 00:40:15;;;;;;;44.13;18.87;;;;;;;;;;5009235;28;20030;-74
2022/03/30 00:42:43;;;;;;;57.33;22.10;;;;;;;;;;5010264;28;20026;-74
2022/03/30 00:45:15;;;;;;;47.40;21.03;;;;;;;;;;5024285;28;20054;-74
2022/03/30 00:47:41;;;;;;;48.17;19.80;;;;;;;;;;4991756;28;20029;-74
2022/03/30 00:50:09;;;;;;;45.97;20.83;;;;;;;;;;5009298;28;20045;-74
2022/03/30 00:52:36;;;;;;;47.57;22.53;;;;;;;;;;5009693;28;20426;-73
2022/03/30 00:55:04;;;;;;;50.83;20.83;;;;;;;;;;5009578;28;20041;-74
2022/03/30 00:57:30;;;;;;;48.37;20.80;;;;;;;;;;5008083;28;20473;-76
2022/03/30 00:59:57;;;;;;;46.93;20.33;;;;;;;;;;5008199;28;20053;-74
2022/03/30 01:02:23;;;;;;;52.33;19.83;;;;;;;;;;4998564;28;20045;-74
2022/03/30 01:04:49;;;;;;;51.27;21.80;;;;;;;;;;4987947;28;20504;-74
2022/03/30 01:07:15;;;;;;;47.40;20.63;;;;;;;;;;4989502;28;20058;-75
2022/03/30 01:09:41;;;;;;;48.97;21.30;;;;;;;;;;4988287;28;20402;-75
2022/03/30 01:12:08;;;;;;;49.27;20.33;;;;;;;;;;4988022;28;20031;-75
2022/03/30 01:14:35;;;;;;;48.40;21.67;;;;;;;;;;4988508;28;20065;-75
2022/03/30 01:17:00;;;;;;;49.60;21.30;;;;;;;;;;4993452;28;20127;-75
2022/03/30 01:19:31;;;;;;;52.13;22.37;;;;;;;;;;5008251;28;20500;-75
2022/03/30 01:21:57;;;;;;;51.87;20.73;;;;;;;;;;4990104;28;20027;-75
2022/03/30 01:24:24;;;;;;;54.33;21.67;;;;;;;;;;4989113;28;20387;-75
2022/03/30 01:26:49;;;;;;;51.87;21.37;;;;;;;;;;4988101;28;20037;-74
2022/03/30 01:34:44;;;;;;;53.67;20.87;;;;;;;;;;5011175;28;20441;-75
2022/03/30 01:37:12;;;;;;;52.07;19.53;;;;;;;;;;5010273;28;20045;-74
2022/03/30 01:39:40;;;;;;;55.83;20.97;;;;;;;;;;5011567;28;20030;-73
2022/03/30 01:42:08;;;;;;;45.07;19.10;;;;;;;;;;5028776;28;20119;-74
2022/03/30 01:44:34;;;;;;;45.67;19.17;;;;;;;;;;5008709;28;20034;-74
2022/03/30 01:47:00;;;;;;;40.70;18.10;;;;;;;;;;5007756;28;20072;-74
2022/03/30 01:49:26;;;;;;;39.53;18.17;;;;;;;;;;5007862;28;20115;-74
2022/03/30 01:51:53;;;;;;;52.13;19.43;;;;;;;;;;5007729;28;20033;-74
2022/03/30 01:54:20;;;;;;;41.70;18.70;;;;;;;;;;5024075;28;20036;-74
2022/03/30 01:56:47;;;;;;;42.27;17.70;;;;;;;;;;5007557;28;20509;-75
2022/03/30 01:59:13;;;;;;;42.40;19.33;;;;;;;;;;5007463;28;20084;-75
2022/03/30 02:01:41;;;;;;;39.00;17.73;;;;;;;;;;5008779;28;20034;-74
2022/03/30 02:04:06;;;;;;;41.17;19.40;;;;;;;;;;5007779;28;20030;-75
2022/03/30 02:06:33;;;;;;;42.27;18.87;;;;;;;;;;5007534;28;20052;-74
2022/03/30 02:08:59;;;;;;;50.33;21.10;;;;;;;;;;5007483;28;20053;-75
2022/03/30 02:11:26;;;;;;;44.93;20.80;;;;;;;;;;5007617;28;20525;-74
2022/03/30 02:13:55;;;;;;;46.60;21.67;;;;;;;;;;5007544;28;20133;-74
2022/03/30 02:16:20;;;;;;;46.67;20.43;;;;;;;;;;5008166;28;20556;-75
2022/03/30 02:18:46;;;;;;;51.40;20.07;;;;;;;;;;5010744;28;20030;-74
2022/03/30 02:21:12;;;;;;;48.67;20.57;;;;;;;;;;4998961;28;20034;-74
2022/03/30 02:23:39;;;;;;;51.10;21.83;;;;;;;;;;4991049;28;20037;-74
2022/03/30 02:26:06;;;;;;;41.90;19.50;;;;;;;;;;4991658;28;20041;-75
2022/03/30 02:28:32;;;;;;;45.67;20.87;;;;;;;;;;4991069;28;20412;-74
2022/03/30 02:30:57;;;;;;;49.90;21.13;;;;;;;;;;4991201;28;20446;-74
2022/03/30 02:33:23;;;;;;;47.90;20.63;;;;;;;;;;5000971;28;20033;-74
2022/03/30 02:35:50;;;;;;;49.53;21.03;;;;;;;;;;5010828;28;20036;-74
2022/03/30 02:38:16;;;;;;;54.03;22.10;;;;;;;;;;5010156;28;20033;-74
2022/03/30 02:40:41;;;;;;;45.93;21.13;;;;;;;;;;5010476;28;20092;-74
2022/03/30 02:43:07;;;;;;;47.30;19.90;;;;;;;;;;5010658;28;20339;-75
2022/03/30 02:45:32;;;;;;;50.50;20.23;;;;;;;;;;5011481;28;20072;-74
2022/03/30 02:50:44;;;;;;;55.33;20.23;;;;;;;;;;5012066;28;20053;-75
2022/03/30 02:53:10;;;;;;;43.70;19.90;;;;;;;;;;5010314;28;20108;-74
2022/03/30 02:55:35;;;;;;;53.07;20.93;;;;;;;;;;5010694;28;20430;-74
2022/03/30 02:58:01;;;;;;;49.90;21.27;;;;;;;;;;5010050;28;20469;-75
2022/03/30 03:00:28;;;;;;;50.53;20.40;;;;;;;;;;5010390;28;20037;-75
2022/03/30 03:02:53;;;;;;;52.07;21.33;;;;;;;;;;5010163;28;20048;-73
2022/03/30 03:05:19;;;;;;;43.57;18.67;;;;;;;;;;5011136;28;20113;-75
2022/03/30 03:07:44;;;;;;;45.57;18.63;;;;;;;;;;5026643;28;20470;-74
2022/03/30 03:10:12;;;;;;;48.93;19.90;;;;;;;;;;5011433;28;20583;-75
2022/03/30 03:12:37;;;;;;;44.03;20.80;;;;;;;;;;5010120;28;20167;-75
2022/03/30 03:15:03;;;;;;;42.70;19.77;;;;;;;;;;5009923;28;20129;-75
2022/03/30 03:17:30;;;;;;;53.40;21.07;;;;;;;;;;5009499;28;20522;-75
2022/03/30 03:19:56;;;;;;;54.50;22.00;;;;;;;;;;5008391;28;20116;-75
2022/03/30 03:22:21;;;;;;;47.90;21.27;;;;;;;;;;4990183;28;20330;-76
2022/03/30 03:24:47;;;;;;;48.97;21.10;;;;;;;;;;4990244;28;20058;-74
2022/03/30 03:27:13;;;;;;;49.00;20.77;;;;;;;;;;4990163;28;20026;-73
2022/03/30 03:29:40;;;;;;;48.53;20.27;;;;;;;;;;4991737;28;20526;-74
2022/03/30 03:32:06;;;;;;;48.23;20.90;;;;;;;;;;4990187;28;20228;-74
2022/03/30 03:34:32;;;;;;;55.37;21.53;;;;;;;;;;5003641;28;20030;-74
2022/03/30 03:36:57;;;;;;;46.60;20.13;;;;;;;;;;5009471;28;20029;-74
2022/03/30 03:39:23;;;;;;;50.63;21.27;;;;;;;;;;5008919;28;20088;-74
2022/03/30 03:41:48;;;;;;;50.97;20.00;;;;;;;;;;5009839;28;20029;-75
2022/03/30 03:44:14;;;;;;;47.70;20.30;;;;;;;;;;5008417;28;20029;-74
2022/03/30 03:46:41;;;;;;;50.30;22.93;;;;;;;;;;5010274;28;20026;-74
2022/03/30 03:49:08;;;;;;;49.63;22.10;;;;;;;;;;5009344;28;20449;-74
2022/03/30 03:51:34;;;;;;;48.47;21.40;;;;;;;;;;5012257;28;20330;-75
2022/03/30 03:53:59;;;;;;;51.80;21.83;;;;;;;;;;5024233;28;20212;-74
2022/03/30 03:56:25;;;;;;;50.43;21.77;;;;;;;;;;5022869;28;20060;-75
2022/03/30 03:58:51;;;;;;;56.17;22.37;;;;;;;;;;5019948;28;20030;-74
2022/03/30 04:01:18;;;;;;;51.23;21.60;;;;;;;;;;5011282;28;20032;-74
2022/03/30 04:03:43;;;;;;;60.07;22.33;;;;;;;;;;5011554;28;20110;-75
2022/03/30 04:06:09;;;;;;;52.33;20.60;;;;;;;;;;5008741;28;20530;-74
2022/03/30 04:08:35;;;;;;;50.90;21.10;;;;;;;;;;5009290;28;20032;-75
2022/03/30 04:11:01;;;;;;;50.57;21.63;;;;;;;;;;5009591;28;20037;-74
2022/03/30 04:13:26;;;;;;;54.77;22.33;;;;;;;;;;5009370;28;20084;-75
2022/03/30 04:15:52;;;;;;;52.23;20.67;;;;;;;;;;5008770;28;20061;-75
2022/03/30 04:18:17;;;;;;;50.50;21.47;;;;;;;;;;5008347;28;20482;-74
2022/03/30 04:20:44;;;;;;;47.50;22.20;;;;;;;;;;5008609;28;20133;-75
2022/03/30 04:23:10;;;;;;;49.97;21.30;;;;;;;;;;5008629;28;20449;-74
2022/03/30 04:25:37;;;;;;;56.27;23.13;;;;;;;;;;5008324;28;20556;-75
2022/03/30 04:28:03;;;;;;;49.80;21.30;;;;;;;;;;5010232;28;20029;-73
2022/03/30 04:30:30;;;;;;;54.43;22.53;;;;;;;;;;5008670;28;20445;-74
2022/03/30 04:32:55;;;;;;;46.17;21.67;;;;;;;;;;5008406;28;20030;-74
2022/03/30 04:35:25;;;;;;;51.20;21.93;;;;;;;;;;5005392;28;20462;-76
2022/03/30 04:37:54;;;;;;;46.00;21.53;;;;;;;;;;4988821;28;20058;-75
2022/03/30 04:40:22;;;;;;;50.00;21.27;;;;;;;;;;4988352;28;20034;-75
2022/03/30 04:42:50;;;;;;;49.63;20.53;;;;;;;;;;4990350;28;20030;-75
2022/03/30 04:45:17;;;;;;;49.00;21.67;;;;;;;;;;4997629;28;20038;-74
2022/03/30 04:47:43;;;;;;;73.67;23.23;;;;;;;;;;5007919;28;20023;-75
2022/03/30 04:50:12;;;;;;;55.13;22.77;;;;;;;;;;5007788;28;20037;-75
2022/03/30 04:52:38;;;;;;;54.57;20.63;;;;;;;;;;5021262;28;20088;-74
2022/03/30 04:55:06;;;;;;;58.23;21.60;;;;;;;;;;4991630;28;20133;-75
2022/03/30 04:57:32;;;;;;;53.17;20.17;;;;;;;;;;5007755;28;20034;-75
2022/03/30 04:59:57;;;;;;;51.13;21.60;;;;;;;;;;5007004;28;20086;-75
2022/03/30 05:02:23;;;;;;;53.33;20.63;;;;;;;;;;5007814;28;20474;-75
2022/03/30 05:04:49;;;;;;;54.03;22.77;;;;;;;;;;5007512;28;20030;-75
2022/03/30 05:07:14;;;;;;;50.00;21.03;;;;;;;;;;5007928;28;20375;-75
2022/03/30 05:09:40;;;;;;;49.53;20.90;;;;;;;;;;5008071;28;20026;-75
2022/03/30 05:12:06;;;;;;;52.30;21.70;;;;;;;;;;5008351;28;20029;-74
2022/03/30 05:14:35;;;;;;;51.47;20.10;;;;;;;;;;5008064;28;20375;-75
2022/03/30 05:17:02;;;;;;;44.23;19.23;;;;;;;;;;4992181;28;20397;-75
2022/03/30 05:19:28;;;;;;;43.17;18.03;;;;;;;;;;5007195;28;20065;-74
2022/03/30 05:21:54;;;;;;;50.10;21.63;;;;;;;;;;5008271;28;20470;-74
2022/03/30 05:24:21;;;;;;;47.10;21.13;;;;;;;;;;5006998;28;20036;-75
2022/03/30 05:26:47;;;;;;;52.60;20.87;;;;;;;;;;5003926;28;20066;-75
2022/03/30 05:29:12;;;;;;;54.90;20.97;;;;;;;;;;4988368;28;20065;-74
2022/03/30 05:31:39;;;;;;;45.83;19.30;;;;;;;;;;4993785;28;20040;-75
2022/03/30 05:34:06;;;;;;;52.33;23.37;;;;;;;;;;5010415;28;20476;-75
2022/03/30 05:36:31;;;;;;;57.47;20.83;;;;;;;;;;5007742;28;20081;-77
2022/03/30 05:38:57;;;;;;;45.80;20.67;;;;;;;;;;5010999;28;20108;-74
2022/03/30 05:41:27;;;;;;;49.33;21.53;;;;;;;;;;5032538;28;20034;-74
2022/03/30 05:43:53;;;;;;;50.27;21.97;;;;;;;;;;5014037;28;20037;-77
2022/03/30 05:46:18;;;;;;;69.40;23.27;;;;;;;;;;5003118;28;20029;-73
2022/03/30 05:48:44;;;;;;;61.20;23.57;;;;;;;;;;5006584;28;20452;-73
2022/03/30 05:51:10;;;;;;;44.20;20.33;;;;;;;;;;5007346;28;20034;-73
2022/03/30 05:53:36;;;;;;;54.33;22.70;;;;;;;;;;5008089;28;20030;-73
2022/03/30 05:56:12;;;;;;;46.73;20.20;;;;;;;;;;5013655;28;20128;-76
2022/03/30 05:58:37;;;;;;;52.70;22.23;;;;;;;;;;5012356;28;20492;-76
2022/03/30 06:01:06;;;;;;;49.07;20.53;;;;;;;;;;5022505;28;20060;-72
2022/03/30 06:03:37;;;;;;;49.30;20.50;;;;;;;;;;5025172;28;20084;-74
2022/03/30 06:06:09;;;;;;;49.90;21.87;;;;;;;;;;5001963;28;20125;-75
2022/03/30 06:08:38;;;;;;;48.67;20.23;;;;;;;;;;5016861;28;20087;-75
2022/03/30 06:11:10;;;;;;;52.17;20.47;;;;;;;;;;5020056;28;20411;-74
2022/03/30 06:13:36;;;;;;;45.83;20.57;;;;;;;;;;5017754;28;20125;-75
2022/03/30 06:16:03;;;;;;;49.00;20.73;;;;;;;;;;5007617;28;20536;-75
2022/03/30 06:18:30;;;;;;;49.87;21.07;;;;;;;;;;5000638;28;20414;-73
2022/03/30 06:20:56;;;;;;;54.03;22.70;;;;;;;;;;5004102;28;20115;-75
2022/03/30 06:23:24;;;;;;;48.13;21.07;;;;;;;;;;4988507;28;20150;-74
2022/03/30 06:25:53;;;;;;;54.57;22.97;;;;;;;;;;5001913;28;20038;-75
2022/03/30 06:28:24;;;;;;;52.33;20.60;;;;;;;;;;5003139;28;20033;-76
2022/03/30 06:30:52;;;;;;;44.03;21.33;;;;;;;;;;5010116;28;20188;-74
2022/03/30 06:33:20;;;;;;;46.97;20.50;;;;;;;;;;5018465;28;20416;-75
2022/03/30 06:35:46;;;;;;;43.33;21.20;;;;;;;;;;5002683;28;20104;-77
2022/03/30 06:38:17;;;;;;;62.37;22.10;;;;;;;;;;4997863;28;20033;-73
2022/03/30 06:40:47;;;;;;;51.20;21.83;;;;;;;;;;5003488;28;20220;-73
2022/03/30 06:43:15;;;;;;;51.57;21.93;;;;;;;;;;5002352;28;20038;-76
2022/03/30 06:45:46;;;;;;;46.43;20.87;;;;;;;;;;5001458;28;20053;-73
2022/03/30 06:48:13;;;;;;;53.73;22.43;;;;;;;;;;4998886;28;20289;-76
2022/03/30 06:50:39;;;;;;;44.80;20.40;;;;;;;;;;5003727;28;20037;-74
2022/03/30 06:53:07;;;;;;;51.53;21.97;;;;;;;;;;5019742;28;20037;-75
2022/03/30 06:55:33;;;;;;;50.20;22.27;;;;;;;;;;5001513;28;20156;-74
2022/03/30 06:57:59;;;;;;;51.37;21.40;;;;;;;;;;4999398;28;20034;-75
2022/03/30 07:00:28;;;;;;;54.97;22.70;;;;;;;;;;5005435;28;20038;-75
2022/03/30 07:02:57;;;;;;;53.67;21.23;;;;;;;;;;5005251;28;20048;-76
2022/03/30 07:05:27;;;;;;;51.23;22.30;;;;;;;;;;5018036;28;20407;-75
2022/03/30 07:10:38;;;;;;;46.83;20.63;;;;;;;;;;5005864;28;20389;-76
2022/03/30 07:13:07;;;;;;;48.60;22.20;;;;;;;;;;5005689;28;20120;-76
2022/03/30 07:15:34;;;;;;;51.17;20.60;;;;;;;;;;5005024;28;20119;-76
2022/03/30 07:18:01;;;;;;;49.43;21.43;;;;;;;;;;4997217;28;21000;-77
2022/03/30 07:20:30;;;;;;;59.87;23.27;;;;;;;;;;4996430;28;20065;-76
2022/03/30 07:22:58;;;;;;;52.27;20.23;;;;;;;;;;5003020;28;20048;-75
2022/03/30 07:25:25;;;;;;;51.50;23.90;;;;;;;;;;5002921;28;20068;-74
2022/03/30 07:27:54;;;;;;;55.40;23.37;;;;;;;;;;5011065;28;20117;-76
2022/03/30 07:30:22;;;;;;;56.83;23.97;;;;;;;;;;5018624;28;20470;-75
2022/03/30 07:32:49;;;;;;;54.17;21.97;;;;;;;;;;5018742;28;20466;-75
2022/03/30 07:35:23;;;;;;;52.83;24.70;;;;;;;;;;5002219;28;20136;-76
2022/03/30 07:37:52;;;;;;;51.10;21.07;;;;;;;;;;5015173;28;20045;-74
2022/03/30 07:40:19;;;;;;;50.57;22.37;;;;;;;;;;5018938;28;20130;-75
2022/03/30 07:42:46;;;;;;;55.13;23.33;;;;;;;;;;5004893;28;20477;-77
2022/03/30 07:45:16;;;;;;;58.27;23.83;;;;;;;;;;5000888;28;20037;-75
2022/03/30 07:47:43;;;;;;;65.00;25.83;;;;;;;;;;4999022;28;20092;-74
2022/03/30 07:50:10;;;;;;;56.83;23.03;;;;;;;;;;5017204;28;20192;-76
2022/03/30 07:52:46;;;;;;;59.00;23.40;;;;;;;;;;5001610;28;20029;-75
2022/03/30 07:55:12;;;;;;;59.10;24.13;;;;;;;;;;5000201;28;20046;-75
2022/03/30 07:57:42;;;;;;;58.23;23.40;;;;;;;;;;4994082;28;20241;-76
2022/03/30 08:00:11;;;;;;;52.13;21.70;;;;;;;;;;5001780;28;20037;-76
2022/03/30 08:02:45;;;;;;;54.83;24.63;;;;;;;;;;5012261;28;20037;-75
2022/03/30 08:05:13;;;;;;;55.93;24.03;;;;;;;;;;4999641;28;20052;-75
2022/03/30 08:07:43;;;;;;;55.13;23.93;;;;;;;;;;4997847;28;20467;-76
2022/03/30 08:10:10;;;;;;;80.53;24.90;;;;;;;;;;5003008;28;20347;-75
2022/03/30 08:12:37;;;;;;;55.27;23.00;;;;;;;;;;5005056;28;20287;-76
2022/03/30 08:15:06;;;;;;;51.17;24.03;;;;;;;;;;4989018;28;20037;-77
2022/03/30 08:17:32;;;;;;;58.70;23.90;;;;;;;;;;4997763;28;20119;-75
2022/03/30 08:19:59;;;;;;;54.90;24.10;;;;;;;;;;5016289;28;20030;-74
2022/03/30 08:22:28;;;;;;;61.97;23.13;;;;;;;;;;5002551;28;20045;-75
2022/03/30 08:24:56;;;;;;;59.27;24.53;;;;;;;;;;5017198;28;20261;-75
2022/03/30 08:27:24;;;;;;;58.50;24.67;;;;;;;;;;5015804;28;20038;-76
2022/03/30 08:29:55;;;;;;;55.53;22.47;;;;;;;;;;5015165;28;20374;-74
2022/03/30 08:32:22;;;;;;;62.35;23.85;;;;;;;;;;4998511;28;20129;-74
2022/03/30 08:34:50;;;;;;;49.50;21.90;;;;;;;;;;4996368;28;20037;-75
2022/03/30 08:37:17;;;;;;;58.07;24.43;;;;;;;;;;5001944;28;20784;-76
2022/03/30 08:39:44;;;;;;;49.33;22.37;;;;;;;;;;5001079;28;20037;-76
2022/03/30 08:42:11;;;;;;;48.70;21.80;;;;;;;;;;5000096;28;20045;-74
2022/03/30 08:44:41;;;;;;;54.07;21.73;;;;;;;;;;4982239;28;20343;-76
2022/03/30 08:47:08;;;;;;;46.93;20.10;;;;;;;;;;4999879;28;20073;-75
2022/03/30 08:49:37;;;;;;;51.90;22.27;;;;;;;;;;5003719;28;20497;-76
2022/03/30 08:52:05;;;;;;;48.83;22.13;;;;;;;;;;4997516;28;20041;-76
2022/03/30 08:54:33;;;;;;;47.57;21.93;;;;;;;;;;5017939;28;20093;-75
2022/03/30 08:57:04;;;;;;;47.17;20.53;;;;;;;;;;5006115;28;21383;-73
2022/03/30 08:59:30;;;;;;;46.13;22.23;;;;;;;;;;5012176;28;20036;-76
2022/03/30 09:01:58;;;;;;;47.30;20.37;;;;;;;;;;5007828;28;20037;-74
2022/03/30 09:04:25;;;;;;;47.60;20.23;;;;;;;;;;5000769;28;20030;-76
2022/03/30 09:06:54;;;;;;;49.80;21.83;;;;;;;;;;5016624;28;20030;-76
2022/03/30 09:09:41;;;;;;;44.93;20.27;;;;;;;;;;4997131;28;20026;-75
2022/03/30 09:12:11;;;;;;;45.73;19.23;;;;;;;;;;4997418;28;20057;-75
2022/03/30 09:14:42;;;;;;;49.33;23.03;;;;;;;;;;5005768;28;20037;-74
2022/03/30 09:17:12;;;;;;;44.87;20.53;;;;;;;;;;4997565;28;20061;-75
2022/03/30 09:19:45;;;;;;;48.03;20.80;;;;;;;;;;5002299;28;20450;-75
2022/03/30 09:22:12;;;;;;;48.67;20.17;;;;;;;;;;5014201;28;20068;-75
2022/03/30 09:24:41;;;;;;;43.90;19.23;;;;;;;;;;5009374;28;20045;-75
2022/03/30 09:27:09;;;;;;;42.37;19.17;;;;;;;;;;5000501;28;20465;-76
2022/03/30 09:29:37;;;;;;;50.03;20.67;;;;;;;;;;5008193;28;20041;-75
2022/03/30 09:32:10;;;;;;;44.10;20.63;;;;;;;;;;5004577;28;20478;-76
2022/03/30 09:34:47;;;;;;;45.00;19.90;;;;;;;;;;4998701;28;20048;-77
2022/03/30 09:37:13;;;;;;;41.60;19.77;;;;;;;;;;5005000;28;20026;-78
2022/03/30 09:39:40;;;;;;;41.00;17.87;;;;;;;;;;5007750;28;20037;-76
2022/03/30 09:42:08;;;;;;;40.70;17.93;;;;;;;;;;5025929;28;20026;-75
2022/03/30 09:44:54;;;;;;;44.53;19.83;;;;;;;;;;5008603;28;20033;-76
2022/03/30 09:47:22;;;;;;;41.33;18.87;;;;;;;;;;5004182;28;20030;-73
2022/03/30 09:49:51;;;;;;;41.70;18.40;;;;;;;;;;4996069;28;20041;-72
2022/03/30 09:52:28;;;;;;;39.63;17.63;;;;;;;;;;5017267;28;20048;-73
2022/03/30 09:54:57;;;;;;;46.30;18.77;;;;;;;;;;5011063;28;20053;-76
2022/03/30 09:57:28;;;;;;;46.00;20.57;;;;;;;;;;4998332;28;20034;-77
2022/03/30 10:00:07;;;;;;;40.72;20.25;;;;;;;;;;5008146;28;20132;-76
2022/03/30 10:02:44;;;;;;;50.33;21.07;;;;;;;;;;5002855;28;20038;-76
2022/03/30 10:05:12;;;;;;;42.57;17.63;;;;;;;;;;5005766;28;20375;-75
2022/03/30 10:07:45;;;;;;;39.67;19.27;;;;;;;;;;5000828;28;20032;-77
2022/03/30 10:10:14;;;;;;;43.63;20.70;;;;;;;;;;4996693;28;20029;-75
2022/03/30 10:12:40;;;;;;;45.97;20.20;;;;;;;;;;5016285;28;20037;-74
2022/03/30 10:15:12;;;;;;;44.03;19.45;;;;;;;;;;4999721;28;20132;-76
2022/03/30 10:17:41;;;;;;;44.60;19.42;;;;;;;;;;4997556;28;20053;-79
2022/03/30 10:20:10;;;;;;;43.63;18.48;;;;;;;;;;4995521;28;20048;-74
2022/03/30 10:23:08;;;;;;;44.60;18.03;;;;;;;;;;4995386;28;20033;-75
2022/03/30 10:25:48;;;;;;;45.70;20.00;;;;;;;;;;5000609;28;20030;-76
2022/03/30 10:28:40;;;;;;;43.00;18.57;;;;;;;;;;4998371;28;20030;-74
2022/03/30 10:31:12;;;;;;;43.55;19.50;;;;;;;;;;4993271;28;20163;-74
2022/03/30 10:33:42;;;;;;;41.15;19.40;;;;;;;;;;5013230;28;20128;-74
2022/03/30 10:37:04;;;;;;;44.95;20.45;;;;;;;;;;5009300;28;20037;-74
2022/03/30 10:39:34;;;;;;;46.80;20.73;;;;;;;;;;4993710;28;20031;-74
2022/03/30 10:42:11;;;;;;;50.42;22.30;;;;;;;;;;5003879;28;20032;-74
2022/03/30 10:44:49;;;;;;;45.35;22.77;;;;;;;;;;5017974;28;20382;-75
2022/03/30 10:47:17;;;;;;;51.75;21.90;;;;;;;;;;4999466;28;20144;-78
2022/03/30 10:49:50;;;;;;;45.03;21.75;;;;;;;;;;5001957;28;20132;-73
2022/03/30 10:52:33;;;;;;;44.70;21.60;;;;;;;;;;5004530;28;20145;-75
2022/03/30 10:55:15;;;;;;;53.70;20.67;;;;;;;;;;5002048;28;20076;-75
2022/03/30 10:57:48;;;;;;;50.57;22.63;;;;;;;;;;4998836;28;20031;-73
2022/03/30 11:00:23;;;;;;;50.80;22.67;;;;;;;;;;4999694;28;20129;-74
2022/03/30 11:02:50;;;;;;;47.58;21.73;;;;;;;;;;5003550;28;20073;-74
2022/03/30 11:05:30;;;;;;;48.22;22.88;;;;;;;;;;5003799;28;20034;-75
2022/03/30 11:07:57;;;;;;;51.70;22.35;;;;;;;;;;4994869;28;20030;-74
2022/03/30 11:10:29;;;;;;;48.75;22.25;;;;;;;;;;5006978;28;20022;-73
2022/03/30 11:13:08;;;;;;;50.25;23.65;;;;;;;;;;5001153;28;20033;-76
2022/03/30 11:16:03;;;;;;;51.97;22.73;;;;;;;;;;5000967;28;20069;-75
2022/03/30 11:18:40;;;;;;;;;;;;;;;;;;;;;
2022/03/30 11:21:24;;;;;;;46.47;21.20;;;;;;;;;;5000355;28;20026;-75
2022/03/30 11:24:20;;;;;;;51.17;23.38;;;;;;;;;;4997376;28;20117;-74
2022/03/30 11:26:49;;;;;;;54.20;24.37;;;;;;;;;;5004432;28;20053;-76
2022/03/30 11:29:45;;;;;;;48.03;21.60;;;;;;;;;;5000440;28;20159;-74
2022/03/30 11:32:28;;;;;;;50.10;21.48;;;;;;;;;;4999045;28;20026;-75
2022/03/30 11:35:17;;;;;;;55.13;23.53;;;;;;;;;;5000038;28;20131;-74
2022/03/30 11:37:55;;;;;;;54.45;23.13;;;;;;;;;;5001720;28;20034;-75
2022/03/30 11:40:45;;;;;;;53.55;23.33;;;;;;;;;;5018682;28;20040;-73
2022/03/30 11:43:13;;;;;;;55.17;24.17;;;;;;;;;;5001380;28;20075;-75
2022/03/30 11:45:40;;;;;;;59.35;25.88;;;;;;;;;;5002916;28;20033;-75
2022/03/30 11:48:10;;;;;;;70.22;26.63;;;;;;;;;;4994805;28;20048;-75
2022/03/30 11:50:45;;;;;;;55.40;26.08;;;;;;;;;;4997750;28;20140;-75
2022/03/30 11:53:21;;;;;;;48.33;23.40;;;;;;;;;;4985620;28;20038;-74
2022/03/30 11:56:06;;;;;;;56.42;23.02;;;;;;;;;;5016964;28;20451;-74
2022/03/30 11:58:43;;;;;;;59.83;24.95;;;;;;;;;;4999694;28;20169;-74
2022/03/30 12:01:16;;;;;;;50.47;22.73;;;;;;;;;;4999845;28;20052;-75
2022/03/30 12:03:50;;;;;;;53.05;21.67;;;;;;;;;;4984402;28;20034;-75
2022/03/30 12:06:20;;;;;;;58.90;24.23;;;;;;;;;;5002288;28;20537;-74
2022/03/30 12:08:51;;;;;;;51.28;21.80;;;;;;;;;;4998963;28;20473;-73
2022/03/30 12:11:22;;;;;;;54.75;24.55;;;;;;;;;;5003098;28;20045;-74
2022/03/30 12:14:02;;;;;;;54.33;22.63;;;;;;;;;;5003756;28;20034;-74
2022/03/30 12:16:34;;;;;;;57.45;23.83;;;;;;;;;;4999945;28;20046;-74
2022/03/30 12:19:02;;;;;;;62.97;25.70;;;;;;;;;;4997670;28;20049;-74
2022/03/30 12:21:40;;;;;;;56.07;24.97;;;;;;;;;;5001239;28;20697;-74
2022/03/30 12:24:11;;;;;;;57.20;25.50;;;;;;;;;;5002335;28;20034;-75
2022/03/30 12:26:40;;;;;;;60.88;25.17;;;;;;;;;;5019959;28;20037;-74
2022/03/30 12:29:14;;;;;;;61.28;26.05;;;;;;;;;;5008012;28;20072;-74
2022/03/30 12:32:00;;;;;;;56.50;25.20;;;;;;;;;;5007130;28;20025;-73
2022/03/30 12:34:33;;;;;;;52.90;23.50;;;;;;;;;;5006667;28;20045;-74
2022/03/30 12:37:22;;;;;;;53.20;24.63;;;;;;;;;;5003663;28;20110;-74
2022/03/30 12:39:52;;;;;;;58.63;23.83;;;;;;;;;;5006683;28;20050;-74
2022/03/30 12:42:25;;;;;;;53.93;23.17;;;;;;;;;;5012151;28;20098;-74
2022/03/30 12:44:54;;;;;;;54.00;23.73;;;;;;;;;;5027123;28;20052;-75
2022/03/30 12:47:33;;;;;;;47.27;21.63;;;;;;;;;;4991318;28;20041;-74
2022/03/30 12:50:14;;;;;;;56.37;25.40;;;;;;;;;;5024677;28;20032;-74
2022/03/30 12:52:48;;;;;;;53.53;24.43;;;;;;;;;;5011564;28;20038;-73
2022/03/30 12:55:34;;;;;;;56.27;25.23;;;;;;;;;;5006452;28;20076;-76
2022/03/30 12:58:07;;;;;;;63.67;24.43;;;;;;;;;;5011407;28;20072;-74
2022/03/30 13:00:41;;;;;;;50.23;23.17;;;;;;;;;;5010309;28;20037;-74
2022/03/30 13:03:24;;;;;;;47.77;22.90;;;;;;;;;;5006083;28;20018;-73
2022/03/30 13:06:02;;;;;;;53.33;25.63;;;;;;;;;;5004801;28;20034;-74
2022/03/30 13:08:28;;;;;;;54.60;24.53;;;;;;;;;;5015198;28;20065;-75
2022/03/30 13:11:00;;;;;;;53.93;25.53;;;;;;;;;;5001488;28;20120;-73
2022/03/30 13:13:35;;;;;;;55.17;24.83;;;;;;;;;;5021969;28;20034;-75
2022/03/30 13:16:17;;;;;;;50.13;21.60;;;;;;;;;;4999751;28;20152;-75
2022/03/30 13:19:11;;;;;;;47.20;22.33;;;;;;;;;;4996446;28;20039;-75
2022/03/30 13:21:47;;;;;;;60.57;24.60;;;;;;;;;;5000039;28;20029;-73
2022/03/30 13:24:21;;;;;;;56.77;23.33;;;;;;;;;;5002450;28;20029;-74
2022/03/30 13:27:07;;;;;;;67.70;24.93;;;;;;;;;;5003284;28;20037;-74
2022/03/30 13:29:37;;;;;;;52.40;25.20;;;;;;;;;;5027350;28;20034;-74
2022/03/30 13:32:03;;;;;;;52.97;23.80;;;;;;;;;;5008187;28;20034;-75
2022/03/30 13:34:35;;;;;;;59.60;25.53;;;;;;;;;;5005376;28;20033;-75
2022/03/30 13:37:04;;;;;;;57.92;25.17;;;;;;;;;;5018247;28;20026;-75
2022/03/30 13:39:33;;;;;;;50.03;22.87;;;;;;;;;;5004124;28;20486;-73
2022/03/30 13:42:01;;;;;;;55.23;23.30;;;;;;;;;;5010326;28;20030;-73
2022/03/30 13:44:27;;;;;;;61.63;23.83;;;;;;;;;;5001679;28;20036;-75
2022/03/30 13:46:53;;;;;;;51.40;23.80;;;;;;;;;;5008980;28;20030;-75
2022/03/30 13:49:41;;;;;;;59.63;23.30;;;;;;;;;;5019078;28;20071;-75
2022/03/30 13:52:07;;;;;;;50.80;22.40;;;;;;;;;;5014981;28;20057;-75
2022/03/30 13:54:33;;;;;;;51.40;22.33;;;;;;;;;;5006699;28;20046;-76
2022/03/30 13:56:58;;;;;;;49.57;22.60;;;;;;;;;;5009747;28;20507;-76
2022/03/30 13:59:24;;;;;;;48.57;21.97;;;;;;;;;;5008944;28;20025;-75
2022/03/30 14:01:50;;;;;;;47.07;23.27;;;;;;;;;;5008266;28;20040;-77
2022/03/30 14:04:16;;;;;;;42.27;20.43;;;;;;;;;;5003678;28;20025;-75
2022/03/30 14:06:42;;;;;;;47.90;21.43;;;;;;;;;;5007396;28;20524;-77
2022/03/30 14:09:10;;;;;;;49.40;22.97;;;;;;;;;;5013094;28;20070;-75
2022/03/30 14:11:36;;;;;;;52.03;22.33;;;;;;;;;;5006700;28;20030;-75
2022/03/30 14:14:02;;;;;;;50.60;21.73;;;;;;;;;;5032623;28;20038;-75
2022/03/30 14:16:27;;;;;;;57.50;23.40;;;;;;;;;;5009609;28;20054;-75
2022/03/30 14:18:53;;;;;;;49.07;21.00;;;;;;;;;;5006290;28;20472;-74
2022/03/30 14:21:18;;;;;;;49.93;20.67;;;;;;;;;;5002943;28;20065;-75
2022/03/30 14:23:44;;;;;;;40.93;19.30;;;;;;;;;;5023752;28;20045;-75
2022/03/30 14:26:10;;;;;;;48.50;20.67;;;;;;;;;;5009147;28;20044;-77
2022/03/30 14:28:37;;;;;;;46.03;19.90;;;;;;;;;;5011073;28;20014;-76
2022/03/30 14:31:03;;;;;;;49.17;21.73;;;;;;;;;;5006517;28;20026;-75
2022/03/30 14:33:30;;;;;;;52.87;22.23;;;;;;;;;;5010341;28;20064;-76
2022/03/30 14:35:57;;;;;;;46.83;20.70;;;;;;;;;;5010474;28;20018;-75
2022/03/30 14:38:24;;;;;;;50.40;20.00;;;;;;;;;;5004307;28;20026;-76
2022/03/30 14:40:51;;;;;;;50.90;20.90;;;;;;;;;;5010591;28;20052;-78
2022/03/30 14:43:20;;;;;;;51.97;21.57;;;;;;;;;;5005882;28;20042;-75